Williams Baptist College, Arkansas
Current Conditions -  °F | °C
As of 4:35 PM on Tuesday 21 Oct 2014 (Local Time) from KARG Reporting Station
Clear Clear  
Wind Chill: 75°   Ceiling: Unl
Heat Index: 75°   Visibility: 10mi
Dew Point: 45°   Wind: 6mph
Humidity: 34%   Direction: 10°N
Pressure: 30.06"   Gusts: NA
Location:  36.1072°N, 90.9128°W
Report Text: KARG 212135Z AUTO 01005KT 10SM CLR 24/07 A3006 RMK AO1
Loading
Personal Weather Stations






























Interactive Weather Map
Tropical Storm Tracking
New forecast layout! Learn more

10-Day Weather Forecast

Advertisements
Track Severe Weather on mobile